createdAt,value
2022-11-28T00:01:44.551Z,-2.50
2022-11-28T00:04:13.253Z,-2.50
2022-11-28T00:06:45.757Z,-2.50
2022-11-28T00:09:17.451Z,-2.60
2022-11-28T00:11:46.275Z,-2.60
2022-11-28T00:16:42.528Z,-2.60
2022-11-28T00:19:11.906Z,-2.60
2022-11-28T00:24:10.149Z,-2.60
2022-11-28T00:26:41.198Z,-2.60
2022-11-28T00:29:10.561Z,-2.60
2022-11-28T00:31:43.156Z,-2.70
2022-11-28T00:34:12.832Z,-2.60
2022-11-28T00:49:00.491Z,-2.70
2022-11-28T00:51:31.119Z,-2.80
2022-11-28T00:53:59.955Z,-2.80
2022-11-28T00:56:30.555Z,-2.70
2022-11-28T01:01:32.649Z,-4.90
2022-11-28T01:04:02.209Z,-2.80
2022-11-28T01:06:33.826Z,-2.80
2022-11-28T01:09:08.336Z,-2.80
2022-11-28T01:26:28.362Z,-2.90
2022-11-28T01:28:57.022Z,-2.90
2022-11-28T01:31:28.785Z,-3.00
2022-11-28T01:33:57.502Z,-3.00
2022-11-28T01:41:28.316Z,-3.00
2022-11-28T01:44:05.823Z,-3.10
2022-11-28T01:46:37.404Z,-3.00
2022-11-28T01:49:17.239Z,-3.00
2022-11-28T01:51:49.870Z,-3.00
2022-11-28T01:54:20.874Z,-3.10
2022-11-28T01:56:53.115Z,-3.10
2022-11-28T01:59:23.574Z,-3.20
2022-11-28T02:09:16.414Z,-3.30
2022-11-28T02:12:01.271Z,-3.40
2022-11-28T02:15:02.135Z,-3.30
2022-11-28T02:18:07.977Z,-3.40
2022-11-28T02:21:00.629Z,-3.50
2022-11-28T02:23:57.789Z,-3.60
2022-11-28T02:26:55.977Z,-3.50
2022-11-28T02:29:50.310Z,-3.50
2022-11-28T02:32:30.219Z,-3.50
2022-11-28T02:35:10.163Z,-3.50
2022-11-28T02:38:02.590Z,-3.50
2022-11-28T02:41:01.214Z,-3.40
2022-11-28T02:43:49.169Z,-3.50
2022-11-28T02:46:27.233Z,-3.60
2022-11-28T02:49:16.282Z,-3.60
2022-11-28T02:51:52.251Z,-3.60
2022-11-28T02:54:22.163Z,-3.50
2022-11-28T02:56:52.473Z,-3.20
2022-11-28T02:59:47.499Z,-3.60
2022-11-28T03:02:29.445Z,-3.50
2022-11-28T03:05:32.236Z,-3.50
2022-11-28T03:08:15.334Z,-3.70
2022-11-28T03:10:56.574Z,-3.70
2022-11-28T03:13:46.871Z,-3.70
2022-11-28T03:16:27.578Z,-3.70
2022-11-28T03:19:13.362Z,-3.30
2022-11-28T03:21:59.108Z,-3.70
2022-11-28T03:24:44.838Z,-3.80
2022-11-28T03:27:26.418Z,-3.70
2022-11-28T03:29:57.437Z,-3.70
2022-11-28T03:32:29.914Z,-3.70
2022-11-28T03:35:09.302Z,-3.70
2022-11-28T03:37:42.761Z,-3.70
2022-11-28T03:40:15.401Z,-3.80
2022-11-28T03:42:45.374Z,-3.60
2022-11-28T03:45:21.990Z,-3.60
2022-11-28T03:47:59.022Z,-3.60
2022-11-28T03:50:36.823Z,-3.60
2022-11-28T03:53:09.868Z,-3.60
2022-11-28T03:55:49.259Z,-3.60
2022-11-28T03:58:39.047Z,-3.60
2022-11-28T04:01:32.256Z,-3.60
2022-11-28T04:04:12.178Z,-3.50
2022-11-28T04:06:58.591Z,-3.60
2022-11-28T04:09:43.163Z,-4.00
2022-11-28T04:12:21.826Z,-3.70
2022-11-28T04:14:56.764Z,-3.70
2022-11-28T04:17:35.036Z,-3.60
2022-11-28T04:20:19.597Z,-3.60
2022-11-28T04:22:53.606Z,-3.70
2022-11-28T04:25:23.619Z,-3.70
2022-11-28T04:28:00.918Z,-3.70
2022-11-28T04:30:31.418Z,-3.70
2022-11-28T04:33:04.681Z,-3.60
2022-11-28T04:35:42.462Z,-3.60
2022-11-28T04:38:12.887Z,-3.60
2022-11-28T04:40:49.722Z,-3.50
2022-11-28T04:43:23.838Z,-3.60
2022-11-28T04:45:56.421Z,-3.60
2022-11-28T04:48:24.210Z,-3.50
2022-11-28T04:51:14.479Z,-3.50
2022-11-28T04:53:50.250Z,-3.50
2022-11-28T04:56:24.264Z,-3.50
2022-11-28T04:58:51.898Z,-3.50
2022-11-28T05:01:26.301Z,-3.50
2022-11-28T05:03:55.005Z,-3.40
2022-11-28T05:06:25.983Z,-3.50
2022-11-28T05:08:53.629Z,-3.40
2022-11-28T05:11:21.083Z,-3.40
2022-11-28T05:13:48.593Z,-3.40
2022-11-28T05:16:16.738Z,-3.40
2022-11-28T05:18:44.496Z,-3.20
2022-11-28T05:21:13.251Z,-3.40
2022-11-28T05:23:43.478Z,-3.10
2022-11-28T05:26:17.735Z,-3.50
2022-11-28T05:28:47.286Z,-3.40
2022-11-28T05:36:13.540Z,-3.30
2022-11-28T05:41:10.712Z,-3.30
2022-11-28T05:46:07.096Z,-3.30
2022-11-28T05:51:05.310Z,-3.30
2022-11-28T06:00:56.274Z,-1.60
2022-11-28T06:08:21.636Z,-3.30
2022-11-28T06:10:59.783Z,-3.30
2022-11-28T06:15:59.091Z,-3.30
2022-11-28T06:45:45.939Z,-3.60
2022-11-28T06:48:16.102Z,-3.50
2022-11-28T06:55:45.182Z,-3.50
2022-11-28T06:58:15.563Z,-3.30
2022-11-28T08:09:32.146Z,-3.50
2022-11-28T08:42:00.255Z,-3.50
2022-11-28T08:44:31.724Z,-3.50
2022-11-28T08:47:00.761Z,-3.10
2022-11-28T08:51:59.617Z,-2.50
2022-11-28T09:19:24.672Z,-3.30
2022-11-28T09:29:24.049Z,-3.30
2022-11-28T09:42:07.136Z,-3.30
2022-11-28T09:44:52.415Z,-3.30
2022-11-28T09:47:25.417Z,-3.20
2022-11-28T09:50:11.139Z,-3.30
2022-11-28T09:52:59.632Z,-3.20
2022-11-28T09:55:41.552Z,-3.00
2022-11-28T09:58:23.943Z,-3.30
2022-11-28T10:01:14.102Z,-3.30
2022-11-28T10:03:56.492Z,-3.20
2022-11-28T10:06:33.490Z,-3.40
2022-11-28T10:09:19.291Z,-3.20
2022-11-28T10:12:17.837Z,-3.20
2022-11-28T10:15:07.017Z,-3.20
2022-11-28T10:17:46.559Z,-3.20
2022-11-28T10:20:24.047Z,-3.20
2022-11-28T10:22:56.643Z,-3.10
2022-11-28T10:25:37.438Z,-3.10
2022-11-28T10:28:10.604Z,-3.10
2022-11-28T10:30:48.862Z,-3.00
2022-11-28T10:33:39.607Z,-3.10
2022-11-28T10:41:13.267Z,-3.20
2022-11-28T10:43:53.534Z,-3.30
2022-11-28T10:46:47.127Z,-3.40
2022-11-28T10:49:41.441Z,-3.30
2022-11-28T10:52:33.833Z,-3.50
2022-11-28T10:55:21.902Z,-3.60
2022-11-28T10:58:06.803Z,-3.40
2022-11-28T11:00:42.559Z,-3.40
2022-11-28T11:03:21.935Z,-3.50
2022-11-28T11:08:29.684Z,-3.50
2022-11-28T11:11:33.236Z,-3.50
2022-11-28T11:14:14.248Z,-3.50
2022-11-28T11:17:03.653Z,-3.90
2022-11-28T11:19:38.507Z,-3.60
2022-11-28T11:22:20.836Z,-3.50
2022-11-28T11:25:21.454Z,-3.50
2022-11-28T11:27:57.089Z,-3.10
2022-11-28T11:30:31.154Z,-3.30
2022-11-28T11:33:03.661Z,-3.20
2022-11-28T11:35:37.888Z,-3.40
2022-11-28T11:38:33.530Z,-3.60
2022-11-28T11:41:32.795Z,-3.60
2022-11-28T11:44:35.520Z,-3.50
2022-11-28T11:47:09.359Z,-3.60
2022-11-28T11:49:50.205Z,-3.70
2022-11-28T11:52:27.364Z,-3.80
2022-11-28T11:55:11.287Z,-3.70
2022-11-28T11:57:46.710Z,-3.50
2022-11-28T12:00:23.254Z,-3.50
2022-11-28T12:02:57.089Z,-3.50
2022-11-28T12:05:52.400Z,-3.50
2022-11-28T12:08:50.690Z,-3.70
2022-11-28T12:11:36.002Z,-3.40
2022-11-28T12:14:29.964Z,-3.50
2022-11-28T12:17:48.423Z,-3.40
2022-11-28T12:20:42.268Z,-3.50
2022-11-28T12:23:42.383Z,-3.10
2022-11-28T12:26:24.298Z,-3.60
2022-11-28T12:29:14.139Z,-3.60
2022-11-28T12:32:03.358Z,-3.50
2022-11-28T12:34:49.131Z,-3.60
2022-11-28T12:38:10.144Z,-3.60
2022-11-28T12:40:54.368Z,-3.50
2022-11-28T12:43:53.152Z,-3.60
2022-11-28T12:46:55.339Z,-3.60
2022-11-28T12:54:19.423Z,-3.70
2022-11-28T12:57:10.156Z,-3.70
2022-11-28T13:00:05.082Z,-3.70
2022-11-28T13:02:56.567Z,-3.70
2022-11-28T13:05:46.569Z,-3.80
2022-11-28T13:08:51.587Z,-3.80
2022-11-28T13:11:54.459Z,-3.90
2022-11-28T13:14:37.481Z,-3.90
2022-11-28T13:17:32.640Z,-3.50
2022-11-28T13:20:41.387Z,-3.80
2022-11-28T13:23:26.670Z,-3.90
2022-11-28T13:26:08.733Z,-3.90
2022-11-28T13:28:52.825Z,-3.90
2022-11-28T13:31:36.591Z,-4.00
2022-11-28T13:39:54.902Z,-4.00
2022-11-28T13:43:08.155Z,-4.10
2022-11-28T13:45:44.621Z,-4.10
2022-11-28T13:54:46.543Z,-4.20
2022-11-28T13:57:22.996Z,-4.20
2022-11-28T14:00:03.643Z,-4.20
2022-11-28T14:02:46.247Z,-4.10
2022-11-28T14:05:28.442Z,-4.30
2022-11-28T14:08:00.268Z,-4.30
2022-11-28T14:10:53.737Z,-4.10
2022-11-28T14:13:48.811Z,-4.10
2022-11-28T14:16:51.691Z,-4.10
2022-11-28T14:19:37.468Z,-4.10
2022-11-28T14:22:29.180Z,-4.00
2022-11-28T14:25:17.025Z,-4.00
2022-11-28T14:27:55.015Z,-4.00
2022-11-28T14:30:49.031Z,-4.10
2022-11-28T14:33:27.763Z,-4.10
2022-11-28T14:36:22.055Z,-4.10
2022-11-28T14:39:07.001Z,-4.10
2022-11-28T14:42:10.889Z,-4.00
2022-11-28T14:45:06.715Z,-4.10
2022-11-28T14:50:18.786Z,-2.30
2022-11-28T14:52:49.379Z,-4.20
2022-11-28T14:55:22.143Z,-4.20
2022-11-28T14:58:10.729Z,-4.20
2022-11-28T15:00:53.927Z,-4.10
2022-11-28T15:03:34.099Z,-4.20
2022-11-28T15:06:18.340Z,-4.30
2022-11-28T15:09:17.964Z,-4.30
2022-11-28T15:12:12.849Z,-4.30
2022-11-28T15:17:14.775Z,-4.20
2022-11-28T15:19:50.059Z,-4.30
2022-11-28T15:22:40.533Z,-2.30
2022-11-28T15:25:37.889Z,-4.20
2022-11-28T15:28:32.388Z,-4.20
2022-11-28T15:31:08.789Z,-4.20
2022-11-28T15:33:41.137Z,-4.10
2022-11-28T15:36:26.877Z,-4.10
2022-11-28T15:38:56.258Z,-4.30
2022-11-28T15:41:25.932Z,-4.20
2022-11-28T15:43:59.802Z,-4.10
2022-11-28T15:46:35.843Z,-4.20
2022-11-28T15:49:12.288Z,-4.20
2022-11-28T15:51:41.123Z,-4.20
2022-11-28T15:54:40.456Z,-4.20
2022-11-28T15:57:19.938Z,-4.20
2022-11-28T15:59:51.119Z,-4.20
2022-11-28T16:02:26.830Z,-4.10
2022-11-28T16:05:16.489Z,-4.10
2022-11-28T16:07:44.972Z,-4.10
2022-11-28T16:10:32.409Z,-4.10
2022-11-28T16:13:11.123Z,-4.20
2022-11-28T16:15:47.039Z,-4.20
2022-11-28T16:18:22.597Z,-3.70
2022-11-28T16:20:50.410Z,-4.20
2022-11-28T16:23:28.292Z,-4.30
2022-11-28T16:26:07.318Z,-4.20
2022-11-28T16:28:42.322Z,-4.10
2022-11-28T16:31:13.761Z,-4.20
2022-11-28T16:33:46.016Z,-4.10
2022-11-28T16:36:34.584Z,-4.00
2022-11-28T16:39:25.464Z,-4.10
2022-11-28T16:42:06.657Z,-4.00
2022-11-28T16:44:38.929Z,-4.10
2022-11-28T16:50:04.083Z,-4.10
2022-11-28T16:52:43.952Z,-4.00
2022-11-28T16:55:38.085Z,-4.00
2022-11-28T16:58:15.663Z,-4.00
2022-11-28T17:01:06.013Z,-4.00
2022-11-28T17:03:52.032Z,-4.00
2022-11-28T17:06:25.943Z,-4.00
2022-11-28T17:09:00.128Z,-4.00
2022-11-28T17:11:37.548Z,-4.00
2022-11-28T17:14:13.497Z,-4.10
2022-11-28T17:16:45.651Z,-4.00
2022-11-28T17:21:55.464Z,-4.00
2022-11-28T17:24:25.004Z,-3.90
2022-11-28T17:29:36.295Z,-3.90
2022-11-28T17:32:17.557Z,-4.00
2022-11-28T17:37:20.664Z,-4.10
2022-11-28T17:45:15.748Z,-4.00
2022-11-28T17:47:56.772Z,-3.90
2022-11-28T17:50:27.313Z,-3.90
2022-11-28T17:53:07.696Z,-4.00
2022-11-28T18:03:12.442Z,-4.00
2022-11-28T18:05:53.441Z,-4.10
2022-11-28T18:11:14.674Z,-4.10
2022-11-28T18:16:27.333Z,-4.30
2022-11-28T18:21:46.356Z,-3.80
2022-11-28T18:26:59.165Z,-3.90
2022-11-28T18:34:32.126Z,-4.00
2022-11-28T18:39:36.773Z,-3.90
2022-11-28T18:57:08.638Z,-4.10
2022-11-28T18:59:51.165Z,-4.00
2022-11-28T19:12:24.650Z,-2.60
2022-11-28T19:20:11.283Z,-4.00
2022-11-28T19:35:17.008Z,-3.90
2022-11-28T19:37:46.978Z,-3.90
2022-11-28T19:40:18.247Z,-4.00
2022-11-28T19:43:04.139Z,-4.10
2022-11-28T19:45:36.385Z,-4.00
2022-11-28T19:53:19.822Z,-3.90
2022-11-28T20:06:00.728Z,-4.00
2022-11-28T20:08:34.260Z,-3.70
2022-11-28T20:11:18.568Z,-3.80
2022-11-28T20:16:28.401Z,-3.90
2022-11-28T20:19:05.645Z,-3.90
2022-11-28T20:21:38.027Z,-3.90
2022-11-28T20:24:10.110Z,-4.00
2022-11-28T20:26:41.512Z,-3.60
2022-11-28T20:29:14.260Z,-3.90
2022-11-28T20:31:51.855Z,-3.90
2022-11-28T20:36:54.915Z,-4.00
2022-11-28T20:39:29.542Z,-3.90
2022-11-28T20:42:05.532Z,-3.90
2022-11-28T20:44:36.199Z,-3.90
2022-11-28T20:47:08.088Z,-3.90
2022-11-28T20:49:43.219Z,-5.20
2022-11-28T20:52:13.587Z,-4.00
2022-11-28T20:59:56.991Z,-4.00
2022-11-28T21:10:04.117Z,-4.00
2022-11-28T21:12:37.631Z,-4.30
2022-11-28T21:17:38.632Z,-3.90
2022-11-28T21:20:07.372Z,-3.90
2022-11-28T21:30:05.442Z,-3.80
2022-11-28T21:54:55.748Z,-3.80
2022-11-28T22:09:55.840Z,-4.20
2022-11-28T22:12:28.149Z,-3.90
2022-11-28T22:32:23.073Z,-3.80
2022-11-28T22:52:10.894Z,-3.70
2022-11-28T23:17:11.283Z,-3.60
2022-11-28T23:44:20.541Z,-4.00
2022-11-28T23:46:50.352Z,-4.00
2022-11-28T23:59:13.554Z,-4.00
